Time;durP1;ratioP1;P1;durP2;ratioP2;P2;SDS_P1;SDS_P2;PMS_P1;PMS_P2;Temp;Humidity;BMP_temperature;BMP_pressure;BME280_temperature;BME280_humidity;BME280_pressure;Samples;Min_cycle;Max_cycle;Signal;HPM_P1;HPM_P2
2022/01/30 00:02:17;;;;;;;24.60;15.32;;;0.90;99.90;;;;;;5092883;28;20020;-69
2022/01/30 00:04:44;;;;;;;29.20;17.80;;;0.80;99.90;;;;;;5091401;28;20589;-68
2022/01/30 00:07:10;;;;;;;28.42;16.35;;;0.80;99.90;;;;;;5093161;28;20160;-68
2022/01/30 00:09:36;;;;;;;27.88;17.23;;;0.90;99.90;;;;;;5092876;28;20025;-68
2022/01/30 00:12:04;;;;;;;25.95;16.48;;;0.80;99.90;;;;;;5092911;28;20043;-68
2022/01/30 00:14:32;;;;;;;28.17;17.95;;;0.80;99.90;;;;;;5092643;28;20472;-68
2022/01/30 00:17:05;;;;;;;29.77;18.05;;;0.80;99.90;;;;;;5092751;28;20024;-68
2022/01/30 00:19:38;;;;;;;30.90;17.55;;;0.80;99.90;;;;;;5074518;28;20115;-67
2022/01/30 00:22:46;;;;;;;28.70;18.15;;;0.80;99.90;;;;;;5092390;28;20051;-68
2022/01/30 00:25:05;;;;;;;29.17;17.83;;;0.80;99.90;;;;;;5088342;28;20123;-68
2022/01/30 00:27:44;;;;;;;28.77;18.98;;;0.80;99.90;;;;;;5074436;28;20028;-68
2022/01/30 00:30:13;;;;;;;31.60;19.85;;;0.80;99.90;;;;;;5074160;28;20447;-68
2022/01/30 00:32:39;;;;;;;32.17;20.08;;;0.80;99.90;;;;;;5091207;28;20027;-67
2022/01/30 00:35:08;;;;;;;35.97;21.50;;;0.80;99.90;;;;;;5092479;28;20032;-68
2022/01/30 00:37:39;;;;;;;41.13;22.85;;;0.90;99.90;;;;;;5092457;28;20104;-68
2022/01/30 00:40:06;;;;;;;44.08;26.45;;;0.90;99.90;;;;;;5092489;28;20052;-68
2022/01/30 00:42:33;;;;;;;40.13;24.42;;;0.80;99.90;;;;;;5094923;28;20074;-67
2022/01/30 00:44:59;;;;;;;40.17;25.50;;;0.80;99.90;;;;;;5096732;28;20028;-68
2022/01/30 00:47:25;;;;;;;39.85;24.92;;;0.80;99.90;;;;;;5096429;28;20020;-67
2022/01/30 00:49:51;;;;;;;38.00;24.88;;;0.80;99.90;;;;;;5096392;28;20032;-68
2022/01/30 00:52:18;;;;;;;36.28;24.00;;;0.70;99.90;;;;;;5096292;28;20336;-68
2022/01/30 00:54:44;;;;;;;31.67;22.58;;;0.70;99.90;;;;;;5096291;28;20066;-68
2022/01/30 00:57:11;;;;;;;32.03;21.00;;;0.60;99.90;;;;;;5096223;28;20085;-68
2022/01/30 00:59:37;;;;;;;34.30;21.35;;;0.60;99.90;;;;;;5094874;28;20028;-67
2022/01/30 01:02:04;;;;;;;31.58;21.00;;;0.70;99.90;;;;;;5077933;28;20032;-68
2022/01/30 01:04:30;;;;;;;31.55;20.52;;;0.70;99.90;;;;;;5095989;28;20028;-68
2022/01/30 01:06:56;;;;;;;30.42;21.25;;;0.70;99.90;;;;;;5096400;28;20028;-68
2022/01/30 01:09:29;;;;;;;28.02;19.23;;;0.80;99.90;;;;;;5094702;28;20055;-68
2022/01/30 01:25:35;;;;;;;27.30;17.30;;;0.80;99.90;;;;;;5111841;28;20035;-68
2022/01/30 01:28:01;;;;;;;26.33;18.15;;;0.80;99.90;;;;;;5114871;28;20031;-68
2022/01/30 01:30:27;;;;;;;27.80;17.42;;;0.90;99.90;;;;;;5115063;28;20098;-68
2022/01/30 01:32:53;;;;;;;27.08;17.15;;;0.90;99.90;;;;;;5114883;28;20019;-68
2022/01/30 01:35:20;;;;;;;29.23;17.20;;;0.80;99.90;;;;;;5114357;28;20062;-68
2022/01/30 01:37:52;;;;;;;21.33;15.00;;;0.90;99.90;;;;;;5111836;28;20024;-69
2022/01/30 01:40:18;;;;;;;27.45;16.88;;;0.90;99.90;;;;;;5107682;28;20026;-67
2022/01/30 01:42:44;;;;;;;29.08;17.15;;;0.90;99.90;;;;;;5094934;28;20036;-68
2022/01/30 01:45:17;;;;;;;24.33;16.33;;;1.00;99.90;;;;;;5111611;28;20036;-68
2022/01/30 01:47:43;;;;;;;28.27;15.75;;;0.90;99.90;;;;;;5112651;28;20023;-68
2022/01/30 01:50:16;;;;;;;22.88;16.50;;;1.00;99.90;;;;;;5114827;28;20038;-68
2022/01/30 01:52:43;;;;;;;25.98;16.65;;;1.00;99.90;;;;;;5114346;28;20023;-68
2022/01/30 01:55:09;;;;;;;27.33;16.27;;;1.00;99.90;;;;;;5095706;28;20057;-68
2022/01/30 01:57:35;;;;;;;25.88;17.35;;;1.00;99.90;;;;;;5114808;28;20471;-68
2022/01/30 02:00:03;;;;;;;22.52;16.33;;;1.10;99.90;;;;;;5114566;28;20036;-68
2022/01/30 02:02:31;;;;;;;22.20;15.80;;;1.10;99.90;;;;;;5114569;28;20111;-68
2022/01/30 02:04:59;;;;;;;23.35;16.80;;;1.10;99.90;;;;;;5114388;28;20122;-68
2022/01/30 02:10:12;;;;;;;26.63;17.02;;;1.10;99.90;;;;;;5114337;28;20375;-68
2022/01/30 02:12:48;;;;;;;27.13;16.58;;;1.10;99.90;;;;;;5113787;28;20020;-68
2022/01/30 02:23:56;;;;;;;23.25;15.55;;;1.20;99.90;;;;;;5114160;28;20056;-68
2022/01/30 02:26:15;;;;;;;21.67;12.85;;;1.10;99.90;;;;;;5113464;28;20634;-68
2022/01/30 02:28:41;;;;;;;20.65;13.75;;;1.20;99.90;;;;;;5114307;28;20027;-68
2022/01/30 02:31:11;;;;;;;21.98;13.88;;;1.20;99.90;;;;;;5095505;28;20027;-68
2022/01/30 02:33:40;;;;;;;21.52;14.55;;;1.20;99.90;;;;;;5078782;28;20086;-68
2022/01/30 02:36:06;;;;;;;24.35;16.00;;;1.20;99.90;;;;;;5075366;28;20028;-68
2022/01/30 02:38:33;;;;;;;25.65;17.08;;;1.20;99.90;;;;;;5093653;28;20028;-68
2022/01/30 02:40:59;;;;;;;24.65;17.77;;;1.20;99.90;;;;;;5093602;28;20391;-69
2022/01/30 02:43:34;;;;;;;27.20;18.40;;;1.20;99.90;;;;;;5111215;28;20027;-68
2022/01/30 02:48:34;;;;;;;28.05;18.83;;;1.30;99.90;;;;;;5098731;28;20107;-69
2022/01/30 02:51:12;;;;;;;26.52;17.08;;;1.20;99.90;;;;;;5111185;28;20398;-69
2022/01/30 02:53:43;;;;;;;26.48;16.73;;;1.30;99.90;;;;;;5113885;28;20085;-69
2022/01/30 02:56:09;;;;;;;28.25;16.88;;;1.40;99.90;;;;;;5095182;28;20038;-69
2022/01/30 02:58:35;;;;;;;28.67;19.10;;;1.30;99.90;;;;;;5095334;28;20485;-69
2022/01/30 03:01:02;;;;;;;32.75;18.33;;;1.40;99.90;;;;;;5095041;28;20028;-68
2022/01/30 03:03:28;;;;;;;35.90;21.40;;;1.50;99.90;;;;;;5113584;28;20031;-69
2022/01/30 03:05:54;;;;;;;29.92;19.00;;;1.40;99.90;;;;;;5094113;28;20049;-69
2022/01/30 03:08:20;;;;;;;33.35;20.20;;;1.40;99.90;;;;;;5094794;28;20076;-68
2022/01/30 03:10:46;;;;;;;25.95;17.77;;;1.40;99.90;;;;;;5094633;28;20115;-69
2022/01/30 03:13:12;;;;;;;29.55;19.95;;;1.40;99.90;;;;;;5094585;28;20375;-68
2022/01/30 03:15:38;;;;;;;30.23;19.13;;;1.50;99.90;;;;;;5094871;28;20058;-69
2022/01/30 03:18:05;;;;;;;35.22;20.70;;;1.50;99.90;;;;;;5108422;28;20019;-68
2022/01/30 03:20:31;;;;;;;41.25;24.35;;;1.60;99.90;;;;;;5092947;28;20031;-68
2022/01/30 03:22:59;;;;;;;35.35;22.23;;;1.70;99.90;;;;;;5074639;28;20395;-68
2022/01/30 03:25:25;;;;;;;39.58;21.23;;;1.70;99.90;;;;;;5087423;28;20035;-69
2022/01/30 03:27:53;;;;;;;32.92;19.52;;;1.80;99.90;;;;;;5091352;28;20032;-68
2022/01/30 03:30:27;;;;;;;29.10;19.23;;;1.80;99.90;;;;;;5098484;28;20020;-68
2022/01/30 03:32:54;;;;;;;28.58;18.17;;;1.90;99.90;;;;;;5108648;28;20023;-68
2022/01/30 03:35:20;;;;;;;35.13;18.73;;;2.00;99.90;;;;;;5094459;28;20430;-68
2022/01/30 03:37:46;;;;;;;24.45;16.63;;;2.10;99.90;;;;;;5106770;28;20034;-67
2022/01/30 03:40:13;;;;;;;26.23;17.08;;;2.10;99.90;;;;;;5101342;28;20632;-68
2022/01/30 03:42:39;;;;;;;29.92;17.48;;;2.20;99.90;;;;;;5082105;28;20039;-67
2022/01/30 03:45:06;;;;;;;25.77;17.70;;;2.50;99.90;;;;;;5083966;28;20076;-67
2022/01/30 03:47:32;;;;;;;26.52;16.88;;;2.60;99.90;;;;;;5105615;28;20051;-67
2022/01/30 03:49:58;;;;;;;26.88;16.95;;;2.70;99.90;;;;;;5081898;28;20024;-67
2022/01/30 03:52:25;;;;;;;23.80;16.33;;;2.50;99.90;;;;;;5107358;28;20034;-67
2022/01/30 03:54:51;;;;;;;27.25;16.20;;;2.60;99.90;;;;;;5084008;28;20093;-69
2022/01/30 03:57:17;;;;;;;26.52;16.33;;;2.80;99.90;;;;;;5103003;28;20051;-68
2022/01/30 03:59:43;;;;;;;21.38;15.25;;;2.70;99.90;;;;;;5098211;28;20598;-69
2022/01/30 04:02:09;;;;;;;24.10;17.15;;;2.80;99.90;;;;;;5092081;28;20089;-68
2022/01/30 04:04:35;;;;;;;21.27;14.65;;;2.80;99.90;;;;;;5101746;28;20019;-69
2022/01/30 04:07:02;;;;;;;22.05;14.93;;;2.80;99.90;;;;;;5102261;28;20047;-67
2022/01/30 04:09:28;;;;;;;22.80;14.32;;;2.80;99.90;;;;;;5105164;28;20054;-67
2022/01/30 04:11:55;;;;;;;19.42;12.70;;;3.10;99.90;;;;;;5082505;28;20028;-67
2022/01/30 04:14:21;;;;;;;17.08;12.35;;;3.10;99.90;;;;;;5103057;28;20439;-68
2022/01/30 04:16:48;;;;;;;20.23;11.88;;;3.00;99.90;;;;;;5089280;28;20028;-67
2022/01/30 04:19:14;;;;;;;16.77;11.45;;;3.20;99.90;;;;;;5106420;28;20020;-66
2022/01/30 04:21:40;;;;;;;16.83;11.40;;;3.20;99.90;;;;;;5088404;28;20402;-67
2022/01/30 04:24:07;;;;;;;21.25;12.75;;;3.40;99.90;;;;;;5109228;28;20110;-67
2022/01/30 04:26:33;;;;;;;19.85;12.90;;;3.40;99.90;;;;;;5105259;28;20031;-68
2022/01/30 04:28:59;;;;;;;20.33;12.30;;;3.50;99.90;;;;;;5108595;28;20028;-68
2022/01/30 04:31:26;;;;;;;18.90;11.98;;;3.50;99.90;;;;;;5086000;28;20035;-68
2022/01/30 04:33:52;;;;;;;18.48;12.77;;;3.40;99.90;;;;;;5083372;28;20031;-67
2022/01/30 04:36:24;;;;;;;16.88;11.27;;;3.40;99.90;;;;;;5080665;28;20399;-68
2022/01/30 04:52:52;;;;;;;27.33;14.32;;;3.10;99.90;;;;;;5108120;28;20097;-69
2022/01/30 04:58:00;;;;;;;26.45;14.65;;;3.10;99.90;;;;;;5102172;28;20122;-68
2022/01/30 05:08:28;;;;;;;20.63;10.95;;;3.20;99.90;;;;;;5104021;28;20092;-69
2022/01/30 05:10:54;;;;;;;17.00;10.25;;;3.10;99.90;;;;;;5106375;28;20534;-69
2022/01/30 05:13:25;;;;;;;14.95;10.13;;;3.10;99.90;;;;;;5090732;28;20051;-67
2022/01/30 05:15:51;;;;;;;20.42;11.63;;;3.20;99.90;;;;;;5097331;28;20071;-67
2022/01/30 05:18:23;;;;;;;18.17;11.82;;;3.20;99.90;;;;;;5109757;28;20107;-68
2022/01/30 05:20:50;;;;;;;17.27;11.10;;;3.30;99.90;;;;;;5108870;28;20394;-68
2022/01/30 05:23:19;;;;;;;19.40;11.63;;;3.40;99.90;;;;;;5100567;28;20036;-68
2022/01/30 05:25:49;;;;;;;20.30;12.32;;;3.40;99.90;;;;;;5109773;28;20074;-69
2022/01/30 05:28:18;;;;;;;19.67;13.57;;;3.50;99.90;;;;;;5105581;28;20063;-68
2022/01/30 05:30:45;;;;;;;25.33;12.85;;;3.50;99.90;;;;;;5114175;28;20024;-67
2022/01/30 05:33:12;;;;;;;27.05;15.07;;;3.60;99.90;;;;;;5103088;28;20041;-67
2022/01/30 05:35:38;;;;;;;27.75;15.25;;;3.60;99.90;;;;;;5105374;28;20114;-67
2022/01/30 05:38:05;;;;;;;30.70;16.13;;;3.90;99.90;;;;;;5108524;28;20024;-68
2022/01/30 05:40:35;;;;;;;33.30;16.83;;;4.00;99.90;;;;;;5089565;28;20126;-68
2022/01/30 05:43:03;;;;;;;27.27;16.20;;;3.80;99.90;;;;;;5091803;28;20027;-67
2022/01/30 05:48:04;;;;;;;32.53;14.63;;;4.10;99.90;;;;;;5113185;28;20035;-68
2022/01/30 05:50:31;;;;;;;31.83;13.90;;;4.30;99.90;;;;;;5096103;28;20035;-67
2022/01/30 05:52:57;;;;;;;21.52;12.02;;;3.70;99.90;;;;;;5093339;28;20024;-68
2022/01/30 05:55:23;;;;;;;24.20;12.23;;;3.80;99.90;;;;;;5092033;28;20398;-69
2022/01/30 05:57:49;;;;;;;22.10;13.07;;;4.00;99.90;;;;;;5093835;28;20035;-68
2022/01/30 06:00:16;;;;;;;21.48;12.73;;;4.20;99.90;;;;;;5108449;28;20436;-68
2022/01/30 06:02:45;;;;;;;14.93;8.48;;;3.90;99.90;;;;;;5114959;28;20036;-70
2022/01/30 06:05:14;;;;;;;18.60;9.55;;;4.20;99.90;;;;;;5113190;28;20031;-67
2022/01/30 06:07:57;;;;;;;21.75;11.07;;;3.90;99.90;;;;;;5094305;28;20140;-68
2022/01/30 06:10:26;;;;;;;24.25;13.40;;;3.90;99.90;;;;;;5105724;28;20027;-68
2022/01/30 06:12:52;;;;;;;22.50;14.05;;;3.80;99.90;;;;;;5105943;28;20171;-68
2022/01/30 06:15:19;;;;;;;20.20;11.15;;;4.10;99.90;;;;;;5112111;28;20093;-70
2022/01/30 06:17:45;;;;;;;18.55;12.82;;;4.40;99.90;;;;;;5094373;28;20039;-68
2022/01/30 06:20:12;;;;;;;20.13;12.70;;;4.60;99.90;;;;;;5112763;28;20087;-67
2022/01/30 06:22:39;;;;;;;15.07;11.10;;;4.90;99.90;;;;;;5092547;28;20061;-68
2022/01/30 06:25:06;;;;;;;24.55;12.98;;;4.80;99.90;;;;;;5111088;28;20031;-67
2022/01/30 06:27:32;;;;;;;27.73;14.98;;;4.70;99.90;;;;;;5088068;28;20207;-68
2022/01/30 06:29:58;;;;;;;21.40;14.30;;;4.90;99.90;;;;;;5094749;28;20046;-68
2022/01/30 06:32:24;;;;;;;21.88;14.30;;;4.40;99.90;;;;;;5094202;28;20196;-68
2022/01/30 06:34:50;;;;;;;19.55;14.18;;;4.70;99.90;;;;;;5095627;28;20478;-68
2022/01/30 06:37:17;;;;;;;27.67;14.63;;;4.70;99.90;;;;;;5110839;28;20108;-68
2022/01/30 06:39:43;;;;;;;21.95;14.07;;;5.00;99.90;;;;;;5086981;28;20050;-68
2022/01/30 06:42:09;;;;;;;22.63;13.40;;;4.70;99.90;;;;;;5108706;28;20051;-67
2022/01/30 06:44:35;;;;;;;23.67;15.38;;;4.40;99.90;;;;;;5112530;28;20505;-68
2022/01/30 06:47:02;;;;;;;30.92;16.42;;;4.40;99.90;;;;;;5093388;28;20024;-68
2022/01/30 06:49:28;;;;;;;23.45;14.38;;;4.40;99.90;;;;;;5095159;28;20039;-68
2022/01/30 06:51:54;;;;;;;26.15;16.08;;;4.30;99.90;;;;;;5111033;28;20023;-68
2022/01/30 06:54:20;;;;;;;34.28;17.10;;;4.40;99.90;;;;;;5086194;28;20030;-68
2022/01/30 06:56:46;;;;;;;32.05;17.77;;;4.70;99.90;;;;;;5106908;28;21081;-69
2022/01/30 06:59:12;;;;;;;40.85;16.63;;;4.60;99.90;;;;;;5112297;28;20034;-67
2022/01/30 07:01:38;;;;;;;36.78;15.80;;;4.70;99.90;;;;;;5095916;28;20024;-67
2022/01/30 07:04:04;;;;;;;23.30;14.18;;;4.70;99.90;;;;;;5088290;28;20103;-68
2022/01/30 07:06:31;;;;;;;28.73;15.23;;;4.70;99.90;;;;;;5093675;28;20100;-67
2022/01/30 07:08:57;;;;;;;33.38;16.95;;;4.80;99.90;;;;;;5095084;28;20030;-68
2022/01/30 07:11:23;;;;;;;40.03;16.58;;;4.70;99.90;;;;;;5113404;28;20055;-67
2022/01/30 07:13:49;;;;;;;27.25;15.95;;;4.70;99.90;;;;;;5095044;28;20032;-68
2022/01/30 07:16:15;;;;;;;31.70;17.00;;;4.70;99.90;;;;;;5112187;28;20048;-68
2022/01/30 07:18:42;;;;;;;34.13;17.77;;;4.60;99.90;;;;;;5093092;28;20035;-68
2022/01/30 07:21:09;;;;;;;27.60;14.45;;;4.80;99.90;;;;;;5089473;28;20032;-67
2022/01/30 07:23:38;;;;;;;25.52;14.60;;;4.90;99.90;;;;;;5106171;28;20028;-68
2022/01/30 07:26:05;;;;;;;39.42;17.70;;;4.70;99.90;;;;;;5092391;28;20069;-68
2022/01/30 07:28:31;;;;;;;36.65;17.17;;;4.70;99.90;;;;;;5092715;28;20023;-69
2022/01/30 07:30:57;;;;;;;31.33;16.58;;;4.70;99.90;;;;;;5088395;28;20111;-68
2022/01/30 07:33:23;;;;;;;29.38;15.25;;;4.90;99.90;;;;;;5102865;28;20024;-68
2022/01/30 07:35:53;;;;;;;33.65;17.77;;;4.70;99.90;;;;;;5105550;28;20448;-68
2022/01/30 07:38:21;;;;;;;41.35;21.17;;;4.70;99.90;;;;;;5085766;28;20085;-69
2022/01/30 07:40:47;;;;;;;38.92;19.55;;;5.00;99.90;;;;;;5103975;28;20034;-68
2022/01/30 07:43:14;;;;;;;39.13;20.98;;;5.10;99.90;;;;;;5087956;28;20028;-68
2022/01/30 07:45:40;;;;;;;41.17;22.00;;;5.00;99.90;;;;;;5089766;28;20027;-68
2022/01/30 07:48:06;;;;;;;33.75;21.83;;;4.90;99.90;;;;;;5101687;28;20020;-67
2022/01/30 07:50:32;;;;;;;49.35;22.23;;;4.70;99.90;;;;;;5101576;28;20511;-68
2022/01/30 07:52:58;;;;;;;46.25;22.13;;;5.00;99.90;;;;;;5103160;28;20045;-67
2022/01/30 07:55:24;;;;;;;51.50;23.20;;;5.10;99.90;;;;;;5085349;28;20058;-67
2022/01/30 07:57:50;;;;;;;41.92;23.10;;;5.10;99.90;;;;;;5090938;28;20031;-68
2022/01/30 08:00:17;;;;;;;38.20;22.13;;;5.30;99.90;;;;;;5093491;28;20038;-67
2022/01/30 08:02:43;;;;;;;44.20;21.05;;;5.70;99.90;;;;;;5112453;28;20038;-67
2022/01/30 08:05:10;;;;;;;48.38;23.13;;;5.20;99.90;;;;;;5090754;28;20055;-68
2022/01/30 08:07:36;;;;;;;43.42;22.38;;;5.10;99.90;;;;;;5095523;28;20103;-68
2022/01/30 08:10:02;;;;;;;38.45;23.23;;;5.30;99.90;;;;;;5093115;28;20042;-68
2022/01/30 08:12:28;;;;;;;36.13;21.48;;;5.20;99.90;;;;;;5111854;28;20028;-67
2022/01/30 08:14:54;;;;;;;38.35;22.77;;;5.30;99.90;;;;;;5092573;28;20146;-68
2022/01/30 08:17:22;;;;;;;42.95;24.70;;;5.30;99.90;;;;;;5112609;28;20032;-68
2022/01/30 08:19:51;;;;;;;36.95;22.73;;;5.50;99.90;;;;;;5111628;28;20066;-68
2022/01/30 08:22:17;;;;;;;37.47;23.45;;;5.50;99.90;;;;;;5112604;28;20106;-68
2022/01/30 08:24:43;;;;;;;35.03;22.88;;;5.50;99.90;;;;;;5111946;28;20032;-68
2022/01/30 08:27:10;;;;;;;40.50;22.85;;;5.30;99.90;;;;;;5111783;28;20085;-68
2022/01/30 08:29:37;;;;;;;39.47;22.13;;;5.50;99.90;;;;;;5094041;28;20471;-67
2022/01/30 08:32:04;;;;;;;46.28;24.67;;;5.20;99.90;;;;;;5111378;28;20028;-68
2022/01/30 08:34:30;;;;;;;33.30;20.77;;;5.30;99.90;;;;;;5111378;28;20035;-68
2022/01/30 08:36:57;;;;;;;35.97;20.75;;;5.10;99.90;;;;;;5093431;28;20119;-67
2022/01/30 08:39:23;;;;;;;38.33;20.88;;;5.20;99.90;;;;;;5091873;28;20039;-68
2022/01/30 08:41:49;;;;;;;31.98;20.58;;;5.20;99.90;;;;;;5091851;28;20102;-68
2022/01/30 08:44:15;;;;;;;30.63;19.73;;;5.30;99.90;;;;;;5093521;28;20045;-67
2022/01/30 08:46:41;;;;;;;33.42;19.17;;;5.30;99.90;;;;;;5093766;28;20031;-68
2022/01/30 08:49:08;;;;;;;29.17;17.98;;;5.30;99.90;;;;;;5111996;28;20035;-68
2022/01/30 08:51:34;;;;;;;30.83;19.55;;;5.40;99.90;;;;;;5112020;28;20073;-68
2022/01/30 08:54:00;;;;;;;29.25;19.02;;;5.40;99.90;;;;;;5111261;28;20035;-67
2022/01/30 08:56:28;;;;;;;33.03;21.52;;;5.50;99.90;;;;;;5109492;28;20040;-68
2022/01/30 08:58:58;;;;;;;32.22;21.27;;;5.60;99.90;;;;;;5093461;28;20494;-67
2022/01/30 09:01:24;;;;;;;35.58;22.80;;;5.40;99.90;;;;;;5111308;28;20027;-69
2022/01/30 09:03:50;;;;;;;33.63;20.98;;;5.30;99.90;;;;;;5113431;28;20031;-69
2022/01/30 09:06:17;;;;;;;68.05;28.75;;;5.30;99.90;;;;;;5115506;28;20028;-68
2022/01/30 09:08:43;;;;;;;79.20;30.75;;;5.30;99.90;;;;;;5093751;28;20384;-68
2022/01/30 09:11:09;;;;;;;79.60;28.83;;;5.40;99.90;;;;;;5108354;28;20028;-67
2022/01/30 09:13:35;;;;;;;47.78;23.40;;;5.20;99.90;;;;;;5077185;28;20031;-68
2022/01/30 09:16:03;;;;;;;37.70;21.33;;;5.20;99.90;;;;;;5089975;28;20135;-68
2022/01/30 09:18:30;;;;;;;44.55;23.23;;;5.50;99.90;;;;;;5110475;28;20032;-68
2022/01/30 09:20:56;;;;;;;46.05;27.92;;;5.40;99.90;;;;;;5096543;28;20027;-68
2022/01/30 09:23:23;;;;;;;50.10;29.08;;;5.30;99.90;;;;;;5111916;28;20469;-68
2022/01/30 09:25:50;;;;;;;46.65;27.58;;;5.10;99.90;;;;;;5089600;28;20039;-69
2022/01/30 09:28:16;;;;;;;49.30;28.25;;;5.10;99.90;;;;;;5097562;28;20031;-69
2022/01/30 09:30:42;;;;;;;54.25;26.48;;;5.30;99.90;;;;;;5095380;28;20078;-68
2022/01/30 09:33:08;;;;;;;52.70;26.90;;;5.30;99.90;;;;;;5096698;28;20474;-68
2022/01/30 09:35:34;;;;;;;54.13;25.92;;;5.40;99.90;;;;;;5087691;28;20079;-69
2022/01/30 09:38:01;;;;;;;49.65;25.73;;;5.50;99.90;;;;;;5109187;28;20110;-69
2022/01/30 09:40:27;;;;;;;48.08;25.38;;;5.40;99.90;;;;;;5115853;28;20080;-68
2022/01/30 09:42:55;;;;;;;58.20;27.52;;;5.40;99.90;;;;;;5114976;28;20028;-67
2022/01/30 09:45:23;;;;;;;70.25;29.90;;;5.50;99.90;;;;;;5114135;28;20107;-68
2022/01/30 09:47:50;;;;;;;62.20;30.52;;;5.50;99.90;;;;;;5114300;28;20030;-68
2022/01/30 09:50:17;;;;;;;54.72;32.83;;;5.50;99.90;;;;;;5097081;28;20024;-68
2022/01/30 09:52:44;;;;;;;58.17;33.90;;;5.40;99.90;;;;;;5097523;28;20405;-67
2022/01/30 09:55:11;;;;;;;51.92;32.97;;;5.20;99.90;;;;;;5114668;28;20093;-68
2022/01/30 09:57:39;;;;;;;56.83;29.10;;;5.30;99.90;;;;;;5110374;28;20036;-69
2022/01/30 10:00:07;;;;;;;51.47;32.85;;;5.30;99.90;;;;;;5102003;28;20036;-68
2022/01/30 10:02:33;;;;;;;56.20;34.22;;;5.30;99.90;;;;;;5114331;28;20036;-69
2022/01/30 10:04:59;;;;;;;58.13;33.70;;;5.20;99.90;;;;;;5115268;28;20058;-68
2022/01/30 10:07:39;;;;;;;53.65;34.55;;;5.20;99.90;;;;;;5115191;28;20382;-68
2022/01/30 10:10:11;;;;;;;52.95;32.45;;;5.20;99.90;;;;;;5095477;28;20019;-69
2022/01/30 10:13:05;;;;;;;59.00;33.58;;;5.10;99.90;;;;;;5113956;28;20023;-68
2022/01/30 10:15:49;;;;;;;58.13;33.45;;;5.10;99.90;;;;;;5090613;28;20090;-68
2022/01/30 10:18:16;;;;;;;54.55;32.40;;;5.00;99.90;;;;;;5110414;28;20059;-69
2022/01/30 10:20:43;;;;;;;56.78;34.03;;;5.10;99.90;;;;;;5093943;28;20713;-68
2022/01/30 10:23:09;;;;;;;57.47;33.83;;;5.10;99.90;;;;;;5093633;28;20024;-68
2022/01/30 10:25:56;;;;;;;57.85;34.55;;;5.10;99.90;;;;;;5085809;28;20076;-68
2022/01/30 10:28:31;;;;;;;55.58;32.92;;;5.00;99.90;;;;;;5089899;28;20428;-68
2022/01/30 10:31:00;;;;;;;59.30;35.10;;;5.10;99.90;;;;;;5107390;28;20016;-68
2022/01/30 10:33:45;;;;;;;63.65;35.83;;;5.10;99.90;;;;;;5109177;28;20024;-68
2022/01/30 10:36:42;;;;;;;54.67;33.90;;;5.10;99.90;;;;;;5092394;28;20038;-68
2022/01/30 10:39:14;;;;;;;62.95;37.72;;;5.00;99.90;;;;;;5089391;28;20074;-69
2022/01/30 10:41:45;;;;;;;62.72;38.03;;;5.00;99.90;;;;;;5092433;28;20075;-68
2022/01/30 10:44:12;;;;;;;69.00;41.28;;;5.00;99.90;;;;;;5110239;28;20085;-68
2022/01/30 10:46:45;;;;;;;66.53;37.88;;;4.90;99.90;;;;;;5093419;28;20122;-68
2022/01/30 10:49:17;;;;;;;64.15;38.92;;;4.90;99.90;;;;;;5089029;28;20020;-67
2022/01/30 10:52:00;;;;;;;64.15;38.28;;;5.00;99.90;;;;;;5087107;28;20486;-67
2022/01/30 10:54:32;;;;;;;62.67;36.67;;;5.00;99.90;;;;;;5077466;28;20028;-68
2022/01/30 10:57:06;;;;;;;67.30;37.70;;;4.90;99.90;;;;;;5088566;28;20024;-68
2022/01/30 10:59:32;;;;;;;65.32;38.30;;;4.80;99.90;;;;;;5104039;28;20483;-68
2022/01/30 11:02:19;;;;;;;71.97;40.53;;;4.90;99.90;;;;;;5106727;28;20050;-68
2022/01/30 11:04:48;;;;;;;66.90;37.90;;;4.90;99.90;;;;;;5107404;28;20088;-68
2022/01/30 11:07:17;;;;;;;67.60;39.83;;;4.90;99.90;;;;;;5111136;28;20065;-68
2022/01/30 11:10:23;;;;;;;67.15;40.78;;;4.80;99.90;;;;;;5093727;28;20046;-70
2022/01/30 11:12:57;;;;;;;72.25;40.85;;;4.80;99.90;;;;;;5111259;28;20106;-68
2022/01/30 11:17:59;;;;;;;79.53;45.35;;;4.90;99.90;;;;;;5090470;28;20032;-68
2022/01/30 11:20:27;;;;;;;70.00;40.65;;;4.80;99.90;;;;;;5079016;28;20100;-68
2022/01/30 11:22:57;;;;;;;71.25;41.38;;;4.80;99.90;;;;;;5069996;28;20032;-68
2022/01/30 11:25:24;;;;;;;71.40;43.35;;;4.70;99.90;;;;;;5072141;28;20033;-69
2022/01/30 11:27:51;;;;;;;69.50;43.80;;;4.70;99.90;;;;;;5077547;28;20028;-67
2022/01/30 11:30:18;;;;;;;73.45;42.28;;;4.70;99.90;;;;;;5081304;28;20054;-68
2022/01/30 11:32:44;;;;;;;74.30;44.13;;;4.70;99.90;;;;;;5081549;28;20098;-68
2022/01/30 11:35:10;;;;;;;76.88;44.08;;;4.60;99.90;;;;;;5074587;28;20036;-68
2022/01/30 11:37:38;;;;;;;73.55;44.30;;;4.70;99.90;;;;;;5077083;28;20028;-68
2022/01/30 11:40:15;;;;;;;74.82;44.38;;;4.60;99.90;;;;;;5081562;28;20039;-68
2022/01/30 11:42:45;;;;;;;76.88;45.00;;;4.60;99.90;;;;;;5072957;28;20479;-67
2022/01/30 11:45:21;;;;;;;79.93;47.83;;;4.50;99.90;;;;;;5081401;28;20471;-67
2022/01/30 11:47:51;;;;;;;76.65;43.92;;;4.50;99.90;;;;;;5075517;28;20058;-68
2022/01/30 11:50:24;;;;;;;73.93;44.35;;;4.40;99.90;;;;;;5076975;28;20371;-68
2022/01/30 11:52:50;;;;;;;74.90;43.85;;;4.30;99.90;;;;;;5078446;28;20032;-68
2022/01/30 11:55:38;;;;;;;76.03;43.40;;;4.30;99.90;;;;;;5076156;28;20038;-69
2022/01/30 11:58:05;;;;;;;82.13;48.90;;;4.20;99.90;;;;;;5064183;28;20116;-67
2022/01/30 12:00:41;;;;;;;88.80;46.40;;;4.20;99.90;;;;;;5068573;28;20086;-69
2022/01/30 12:03:35;;;;;;;84.35;48.78;;;4.20;99.90;;;;;;5070261;28;20041;-68
2022/01/30 12:06:19;;;;;;;91.85;54.08;;;4.10;99.90;;;;;;5072708;28;20277;-68
2022/01/30 12:08:48;;;;;;;97.00;53.05;;;4.10;99.90;;;;;;5079768;28;20024;-68
2022/01/30 12:11:36;;;;;;;92.28;53.45;;;4.10;99.90;;;;;;5077048;28;20035;-68
2022/01/30 12:14:06;;;;;;;105.97;58.20;;;4.10;99.90;;;;;;5071983;28;20017;-68
2022/01/30 12:16:46;;;;;;;109.95;60.92;;;4.00;99.90;;;;;;5110019;28;20047;-68
2022/01/30 12:19:16;;;;;;;103.13;60.97;;;4.00;99.90;;;;;;5112012;28;20035;-68
2022/01/30 12:21:44;;;;;;;103.70;58.55;;;3.80;99.90;;;;;;5112134;28;20036;-68
2022/01/30 12:24:24;;;;;;;108.50;58.55;;;4.00;99.90;;;;;;5107039;28;20035;-68
2022/01/30 12:26:58;;;;;;;104.82;63.03;;;3.80;99.90;;;;;;5094487;28;20031;-68
2022/01/30 12:29:40;;;;;;;105.28;62.30;;;3.80;99.90;;;;;;5113131;28;20259;-68
2022/01/30 12:34:57;;;;;;;104.93;59.38;;;3.60;99.90;;;;;;5110933;28;20031;-68
2022/01/30 12:37:26;;;;;;;106.25;60.45;;;3.70;99.90;;;;;;5086888;28;20034;-68
2022/01/30 12:39:52;;;;;;;104.75;59.38;;;3.60;99.90;;;;;;5116883;28;20069;-67
2022/01/30 12:42:20;;;;;;;101.55;57.58;;;3.60;99.90;;;;;;5116005;28;20041;-68
2022/01/30 12:44:47;;;;;;;95.80;59.33;;;3.40;99.90;;;;;;5115863;28;20436;-68
2022/01/30 12:47:14;;;;;;;96.25;56.67;;;3.40;99.90;;;;;;5097760;28;20122;-68
2022/01/30 12:49:47;;;;;;;98.07;57.40;;;3.50;99.90;;;;;;5115635;28;20030;-68
2022/01/30 12:52:27;;;;;;;107.22;61.67;;;3.50;99.90;;;;;;5112895;28;20028;-67
2022/01/30 12:54:55;;;;;;;117.93;65.28;;;3.50;99.90;;;;;;5078469;28;20388;-67
2022/01/30 12:57:22;;;;;;;119.78;69.80;;;3.60;99.90;;;;;;5113609;28;20035;-68
2022/01/30 12:59:56;;;;;;;122.65;69.63;;;3.50;99.90;;;;;;5116113;28;20073;-68
2022/01/30 13:02:23;;;;;;;152.55;85.85;;;3.30;99.90;;;;;;5114556;28;20024;-68
2022/01/30 13:05:07;;;;;;;158.32;89.10;;;3.20;99.90;;;;;;5095776;28;20031;-68
2022/01/30 13:07:34;;;;;;;150.48;88.28;;;3.20;99.90;;;;;;5101293;28;20114;-67
2022/01/30 13:10:12;;;;;;;156.57;89.07;;;3.00;99.90;;;;;;5095117;28;20028;-69
2022/01/30 13:12:40;;;;;;;160.43;92.97;;;2.90;99.90;;;;;;5098047;28;20028;-67
2022/01/30 13:15:11;;;;;;;146.48;84.63;;;2.80;99.90;;;;;;5097873;28;20430;-68
2022/01/30 13:17:38;;;;;;;143.63;83.18;;;2.70;99.90;;;;;;5116332;28;20034;-68
2022/01/30 13:20:06;;;;;;;152.25;85.53;;;2.60;99.90;;;;;;5116306;28;20127;-68
2022/01/30 13:22:44;;;;;;;143.80;80.97;;;2.40;99.90;;;;;;5097600;28;20028;-68
2022/01/30 13:25:16;;;;;;;149.75;82.90;;;2.40;99.90;;;;;;5116091;28;20422;-68
2022/01/30 13:27:45;;;;;;;130.35;78.03;;;2.30;99.90;;;;;;5080910;28;20020;-67
2022/01/30 13:30:25;;;;;;;138.70;76.05;;;2.10;99.90;;;;;;5116072;28;20027;-68
2022/01/30 13:32:53;;;;;;;126.78;74.45;;;2.00;99.90;;;;;;5116024;28;20024;-67
2022/01/30 13:35:21;;;;;;;117.13;67.38;;;1.90;99.90;;;;;;5115927;28;20161;-68
2022/01/30 13:37:48;;;;;;;97.05;55.83;;;1.90;99.90;;;;;;5115718;28;20024;-67
2022/01/30 13:40:22;;;;;;;96.28;56.10;;;1.90;99.90;;;;;;5099371;28;20043;-67
2022/01/30 13:42:55;;;;;;;86.28;51.42;;;2.10;99.90;;;;;;5111207;28;20023;-68
2022/01/30 13:48:18;;;;;;;91.28;53.20;;;1.90;99.90;;;;;;5115752;28;20047;-68